createdAt,value
2022-08-07T00:00:59.972Z,17.55
2022-08-07T00:04:15.416Z,17.51
2022-08-07T00:07:18.842Z,17.52
2022-08-07T00:10:26.024Z,17.51
2022-08-07T00:13:29.146Z,17.51
2022-08-07T00:16:31.285Z,17.50
2022-08-07T00:20:00.514Z,17.49
2022-08-07T00:22:54.975Z,17.47
2022-08-07T00:26:01.555Z,17.49
2022-08-07T00:29:09.840Z,17.48
2022-08-07T00:32:15.075Z,17.49
2022-08-07T00:35:23.105Z,17.48
2022-08-07T00:38:31.132Z,17.49
2022-08-07T00:41:37.257Z,17.52
2022-08-07T00:44:47.271Z,17.50
2022-08-07T00:48:08.106Z,17.50
2022-08-07T00:51:13.872Z,17.49
2022-08-07T00:54:19.902Z,17.47
2022-08-07T00:57:26.262Z,17.49
2022-08-07T01:00:28.775Z,17.54
2022-08-07T01:03:56.904Z,17.53
2022-08-07T01:06:56.621Z,17.52
2022-08-07T01:10:06.642Z,17.55
2022-08-07T01:13:16.464Z,17.60
2022-08-07T01:16:30.318Z,17.61
2022-08-07T01:19:34.324Z,17.61
2022-08-07T01:22:54.168Z,17.63
2022-08-07T01:26:05.059Z,17.64
2022-08-07T01:29:08.020Z,17.64
2022-08-07T01:32:12.329Z,17.61
2022-08-07T01:35:17.583Z,17.60
2022-08-07T01:38:24.869Z,17.59
2022-08-07T01:41:30.214Z,17.58
2022-08-07T01:44:37.328Z,17.55
2022-08-07T01:48:19.571Z,17.53
2022-08-07T01:51:58.631Z,17.54
2022-08-07T01:54:36.788Z,17.53
2022-08-07T01:58:06.069Z,17.49
2022-08-07T02:01:25.465Z,17.46
2022-08-07T02:04:55.787Z,17.45
2022-08-07T02:08:03.201Z,17.41
2022-08-07T02:11:30.974Z,17.43
2022-08-07T02:14:40.996Z,17.41
2022-08-07T02:17:53.606Z,17.38
2022-08-07T02:20:57.588Z,17.37
2022-08-07T02:24:00.485Z,17.35
2022-08-07T02:27:04.613Z,17.32
2022-08-07T02:30:12.323Z,17.26
2022-08-07T02:33:18.049Z,17.20
2022-08-07T02:36:29.081Z,17.19
2022-08-07T02:39:42.510Z,17.14
2022-08-07T02:42:51.808Z,17.10
2022-08-07T02:46:01.615Z,17.07
2022-08-07T02:49:06.203Z,17.05
2022-08-07T02:52:14.029Z,17.02
2022-08-07T02:55:27.585Z,16.98
2022-08-07T02:58:33.865Z,16.95
2022-08-07T03:01:41.782Z,16.92
2022-08-07T03:04:53.268Z,16.86
2022-08-07T03:08:07.120Z,16.85
2022-08-07T03:11:15.258Z,16.81
2022-08-07T03:14:22.527Z,16.76
2022-08-07T03:17:25.953Z,16.75
2022-08-07T03:20:29.995Z,16.71
2022-08-07T03:23:33.632Z,16.68
2022-08-07T03:27:00.189Z,16.61
2022-08-07T03:30:10.837Z,16.55
2022-08-07T03:33:20.353Z,16.53
2022-08-07T03:36:25.935Z,16.48
2022-08-07T03:39:46.456Z,16.46
2022-08-07T03:42:55.986Z,16.42
2022-08-07T03:45:59.611Z,16.39
2022-08-07T03:49:03.514Z,16.36
2022-08-07T03:52:22.898Z,16.30
2022-08-07T03:55:57.440Z,16.29
2022-08-07T03:59:08.494Z,16.29
2022-08-07T04:02:15.093Z,16.28
2022-08-07T04:05:20.762Z,16.25
2022-08-07T04:08:34.123Z,16.23
2022-08-07T04:12:21.091Z,16.21
2022-08-07T04:15:04.977Z,16.20
2022-08-07T04:18:56.588Z,16.17
2022-08-07T04:21:37.639Z,16.14
2022-08-07T04:24:41.623Z,16.07
2022-08-07T04:27:59.188Z,16.07
2022-08-07T04:31:04.676Z,16.04
2022-08-07T04:34:16.762Z,16.02
2022-08-07T04:37:20.731Z,16.01
2022-08-07T04:40:29.699Z,16.00
2022-08-07T04:44:09.922Z,15.99
2022-08-07T04:47:56.919Z,15.99
2022-08-07T04:51:02.272Z,16.01
2022-08-07T04:54:22.827Z,16.00
2022-08-07T04:58:12.099Z,16.00
2022-08-07T05:01:32.435Z,16.02
2022-08-07T05:04:50.251Z,16.01
2022-08-07T05:08:15.023Z,16.00
2022-08-07T05:11:24.286Z,16.02
2022-08-07T05:14:52.167Z,16.02
2022-08-07T05:18:08.492Z,16.01
2022-08-07T05:21:18.328Z,16.06
2022-08-07T05:24:41.392Z,16.07
2022-08-07T05:28:16.246Z,16.07
2022-08-07T05:31:14.552Z,16.07
2022-08-07T05:34:21.037Z,16.10
2022-08-07T05:37:29.802Z,16.08
2022-08-07T05:40:50.591Z,16.08
2022-08-07T05:44:12.127Z,16.09
2022-08-07T05:47:20.925Z,16.07
2022-08-07T05:50:42.822Z,16.12
2022-08-07T05:54:13.134Z,16.13
2022-08-07T05:57:09.613Z,16.16
2022-08-07T06:00:16.869Z,16.21
2022-08-07T06:03:47.055Z,16.22
2022-08-07T06:06:56.400Z,16.20
2022-08-07T06:10:05.190Z,16.23
2022-08-07T06:13:13.664Z,16.24
2022-08-07T06:16:18.811Z,16.30
2022-08-07T06:19:52.155Z,16.31
2022-08-07T06:23:02.397Z,16.39
2022-08-07T06:26:16.717Z,16.44
2022-08-07T06:29:18.404Z,16.49
2022-08-07T06:32:21.986Z,16.55
2022-08-07T06:35:45.518Z,16.63
2022-08-07T06:38:58.793Z,16.67
2022-08-07T06:42:19.512Z,16.72
2022-08-07T06:46:01.129Z,16.78
2022-08-07T06:49:04.933Z,16.85
2022-08-07T06:52:11.424Z,16.93
2022-08-07T06:55:33.997Z,17.00
2022-08-07T07:00:13.372Z,17.05
2022-08-07T07:02:53.942Z,17.14
2022-08-07T07:06:05.032Z,17.21
2022-08-07T07:09:24.059Z,17.28
2022-08-07T07:12:48.821Z,17.36
2022-08-07T07:16:03.228Z,17.48
2022-08-07T07:19:55.311Z,17.61
2022-08-07T07:22:36.215Z,17.73
2022-08-07T07:26:32.529Z,17.85
2022-08-07T07:29:38.866Z,17.93
2022-08-07T07:32:42.651Z,18.04
2022-08-07T07:36:04.436Z,18.15
2022-08-07T07:39:09.089Z,18.24
2022-08-07T07:42:13.935Z,18.37
2022-08-07T07:45:24.503Z,18.47
2022-08-07T07:48:45.942Z,18.63
2022-08-07T07:51:57.542Z,18.79
2022-08-07T07:55:03.398Z,18.93
2022-08-07T07:58:05.977Z,19.04
2022-08-07T08:04:33.622Z,19.26
2022-08-07T08:07:42.142Z,19.33
2022-08-07T08:10:53.588Z,19.41
2022-08-07T08:13:55.898Z,19.48
2022-08-07T08:17:55.759Z,19.54
2022-08-07T08:20:23.721Z,19.58
2022-08-07T08:23:50.249Z,19.59
2022-08-07T08:27:09.634Z,19.62
2022-08-07T08:30:14.296Z,19.64
2022-08-07T08:33:20.561Z,19.71
2022-08-07T08:36:30.628Z,19.74
2022-08-07T08:39:39.081Z,19.78
2022-08-07T08:43:04.734Z,19.87
2022-08-07T08:46:17.122Z,19.91
2022-08-07T08:49:46.912Z,19.97
2022-08-07T08:53:40.432Z,19.99
2022-08-07T08:56:49.829Z,19.98
2022-08-07T09:00:01.704Z,20.05
2022-08-07T09:03:47.410Z,20.07
2022-08-07T09:07:00.646Z,20.09
2022-08-07T09:10:22.462Z,20.14
2022-08-07T09:13:46.274Z,20.26
2022-08-07T09:17:07.841Z,20.37
2022-08-07T09:20:58.612Z,20.45
2022-08-07T09:24:31.146Z,20.48
2022-08-07T09:28:02.966Z,20.53
2022-08-07T09:31:38.289Z,20.55
2022-08-07T09:36:04.464Z,20.61
2022-08-07T09:39:11.397Z,20.73
2022-08-07T09:43:00.542Z,20.79
2022-08-07T09:47:51.360Z,20.84
2022-08-07T09:50:19.210Z,20.91
2022-08-07T09:53:26.732Z,20.96
2022-08-07T09:57:18.702Z,20.95
2022-08-07T10:00:30.035Z,20.90
2022-08-07T10:04:05.879Z,20.95
2022-08-07T10:07:53.555Z,21.02
2022-08-07T10:12:00.318Z,21.17
2022-08-07T10:14:56.997Z,21.30
2022-08-07T10:18:08.560Z,21.39
2022-08-07T10:22:11.994Z,21.52
2022-08-07T10:25:23.888Z,21.58
2022-08-07T10:29:21.651Z,21.60
2022-08-07T10:32:53.725Z,21.67
2022-08-07T10:36:29.256Z,21.76
2022-08-07T10:40:09.266Z,21.83
2022-08-07T10:43:29.833Z,21.85
2022-08-07T10:46:51.126Z,21.89
2022-08-07T10:50:05.616Z,21.99
2022-08-07T10:53:21.522Z,22.11
2022-08-07T10:57:13.000Z,22.22
2022-08-07T11:00:39.774Z,22.22
2022-08-07T11:04:23.372Z,22.18
2022-08-07T11:07:59.662Z,22.25
2022-08-07T11:11:15.580Z,22.34
2022-08-07T11:14:43.411Z,22.44
2022-08-07T11:17:54.021Z,22.51
2022-08-07T11:21:14.093Z,22.64
2022-08-07T11:24:38.984Z,22.79
2022-08-07T11:28:15.323Z,22.85
2022-08-07T11:31:35.337Z,22.98
2022-08-07T11:34:50.002Z,23.02
2022-08-07T11:38:28.270Z,23.00
2022-08-07T11:42:02.362Z,23.02
2022-08-07T11:45:35.335Z,23.03
2022-08-07T11:48:46.685Z,23.06
2022-08-07T11:52:09.205Z,23.10
2022-08-07T11:56:24.841Z,23.09
2022-08-07T12:00:08.297Z,23.07
2022-08-07T12:02:52.403Z,23.04
2022-08-07T12:06:37.013Z,23.02
2022-08-07T12:10:05.582Z,23.25
2022-08-07T12:13:39.200Z,23.50
2022-08-07T12:17:07.517Z,23.55
2022-08-07T12:20:30.087Z,23.55
2022-08-07T12:24:06.705Z,23.59
2022-08-07T12:27:18.659Z,23.65
2022-08-07T12:30:36.285Z,23.68
2022-08-07T12:33:56.181Z,23.78
2022-08-07T12:37:08.158Z,23.83
2022-08-07T12:40:46.932Z,23.83
2022-08-07T12:44:03.401Z,23.84
2022-08-07T12:47:07.021Z,23.88
2022-08-07T12:50:49.374Z,23.97
2022-08-07T12:54:38.123Z,24.06
2022-08-07T12:58:00.738Z,24.18
2022-08-07T13:01:32.175Z,24.34
2022-08-07T13:06:02.848Z,24.45
2022-08-07T13:09:12.711Z,24.54
2022-08-07T13:12:35.312Z,24.74
2022-08-07T13:15:47.711Z,24.95
2022-08-07T13:19:00.973Z,25.07
2022-08-07T13:22:27.570Z,25.29
2022-08-07T13:25:38.759Z,25.56
2022-08-07T13:28:58.270Z,25.78
2022-08-07T13:32:06.379Z,25.86
2022-08-07T13:35:59.631Z,26.02
2022-08-07T13:40:32.904Z,26.17
2022-08-07T13:42:56.393Z,26.31
2022-08-07T13:46:20.862Z,26.52
2022-08-07T13:50:33.118Z,26.72
2022-08-07T13:52:48.687Z,26.97
2022-08-07T13:55:54.518Z,27.08
2022-08-07T13:59:02.518Z,27.18
2022-08-07T14:02:12.865Z,27.20
2022-08-07T14:05:23.120Z,27.25
2022-08-07T14:08:25.362Z,27.28
2022-08-07T14:11:53.140Z,27.36
2022-08-07T14:14:56.368Z,27.33
2022-08-07T14:18:27.259Z,27.30
2022-08-07T14:22:41.208Z,27.25
2022-08-07T14:25:15.778Z,27.22
2022-08-07T14:28:19.138Z,27.24
2022-08-07T14:31:23.968Z,27.28
2022-08-07T14:34:30.263Z,27.23
2022-08-07T14:37:38.964Z,27.27
2022-08-07T14:40:48.630Z,27.34
2022-08-07T14:43:57.455Z,27.43
2022-08-07T14:47:08.907Z,27.50
2022-08-07T14:50:19.785Z,27.50
2022-08-07T14:56:48.215Z,27.59
2022-08-07T15:00:05.154Z,27.65
2022-08-07T15:03:17.449Z,27.80
2022-08-07T15:06:25.210Z,27.88
2022-08-07T15:09:59.254Z,27.88
2022-08-07T15:12:54.968Z,27.88
2022-08-07T15:20:30.172Z,27.89
2022-08-07T15:23:17.033Z,27.92
2022-08-07T15:26:33.352Z,27.75
2022-08-07T15:30:04.836Z,27.58
2022-08-07T15:33:05.616Z,27.47
2022-08-07T15:37:03.459Z,27.38
2022-08-07T15:39:58.304Z,27.32
2022-08-07T15:43:53.013Z,27.26
2022-08-07T15:46:51.606Z,27.31
2022-08-07T15:50:04.095Z,27.19
2022-08-07T15:53:51.740Z,27.16
2022-08-07T15:56:59.743Z,27.08
2022-08-07T16:00:04.347Z,26.99
2022-08-07T16:03:46.327Z,26.94
2022-08-07T16:07:00.612Z,26.86
2022-08-07T16:10:25.173Z,26.83
2022-08-07T16:13:58.917Z,26.70
2022-08-07T16:18:02.587Z,26.54
2022-08-07T16:21:57.153Z,26.38
2022-08-07T16:24:40.774Z,26.20
2022-08-07T16:30:07.581Z,26.01
2022-08-07T16:32:00.548Z,25.93
2022-08-07T16:35:58.527Z,25.87
2022-08-07T16:39:17.807Z,25.73
2022-08-07T16:43:05.945Z,25.62
2022-08-07T16:50:27.886Z,25.40
2022-08-07T16:54:02.197Z,25.32
2022-08-07T16:56:55.235Z,25.20
2022-08-07T17:00:15.101Z,25.08
2022-08-07T17:03:57.679Z,24.99
2022-08-07T17:07:04.117Z,24.87
2022-08-07T17:10:32.350Z,24.76
2022-08-07T17:14:17.829Z,24.59
2022-08-07T17:17:16.824Z,24.54
2022-08-07T17:20:35.514Z,24.53
2022-08-07T17:23:59.920Z,24.51
2022-08-07T17:27:10.143Z,24.44
2022-08-07T17:30:27.247Z,24.31
2022-08-07T17:34:08.891Z,24.23
2022-08-07T17:37:09.638Z,24.17
2022-08-07T17:40:57.342Z,24.12
2022-08-07T17:44:14.899Z,24.09
2022-08-07T17:47:56.575Z,24.05
2022-08-07T17:51:04.456Z,24.01
2022-08-07T17:54:40.140Z,23.94
2022-08-07T17:57:58.891Z,23.87
2022-08-07T18:01:21.536Z,23.80
2022-08-07T18:04:34.474Z,23.73
2022-08-07T18:07:36.615Z,23.66
2022-08-07T18:12:07.996Z,23.61
2022-08-07T18:14:23.832Z,23.54
2022-08-07T18:18:47.599Z,23.51
2022-08-07T18:21:37.300Z,23.40
2022-08-07T18:24:50.982Z,23.33
2022-08-07T18:28:35.864Z,23.26
2022-08-07T18:31:52.540Z,23.14
2022-08-07T18:35:16.071Z,23.03
2022-08-07T18:38:55.110Z,22.93
2022-08-07T18:42:22.377Z,22.83
2022-08-07T18:46:25.422Z,22.77
2022-08-07T18:50:30.926Z,22.69
2022-08-07T18:53:16.318Z,22.62
2022-08-07T18:56:39.266Z,22.54
2022-08-07T19:00:33.046Z,22.48
2022-08-07T19:04:15.912Z,22.37
2022-08-07T19:07:52.018Z,22.26
2022-08-07T19:11:35.764Z,22.15
2022-08-07T19:14:51.091Z,22.04
2022-08-07T19:18:18.280Z,21.92
2022-08-07T19:22:04.454Z,21.78
2022-08-07T19:26:22.607Z,21.66
2022-08-07T19:30:57.473Z,21.56
2022-08-07T19:32:18.761Z,21.43
2022-08-07T19:35:33.301Z,21.32
2022-08-07T19:38:53.380Z,21.19
2022-08-07T19:42:08.059Z,21.06
2022-08-07T19:46:01.134Z,20.94
2022-08-07T19:48:54.470Z,20.84
2022-08-07T19:52:00.258Z,20.72
2022-08-07T19:55:03.147Z,20.64
2022-08-07T19:58:14.304Z,20.53
2022-08-07T20:01:19.166Z,20.44
2022-08-07T20:04:30.950Z,20.34
2022-08-07T20:07:46.536Z,20.27
2022-08-07T20:11:02.177Z,20.18
2022-08-07T20:14:07.272Z,20.09
2022-08-07T20:17:25.989Z,20.00
2022-08-07T20:20:30.096Z,19.92
2022-08-07T20:23:41.788Z,19.83
2022-08-07T20:26:52.403Z,19.76
2022-08-07T20:30:00.309Z,19.65
2022-08-07T20:33:05.387Z,19.60
2022-08-07T20:36:21.491Z,19.56
2022-08-07T20:40:32.590Z,19.47
2022-08-07T20:43:47.494Z,19.38
2022-08-07T20:47:05.708Z,19.32
2022-08-07T20:50:12.297Z,19.16
2022-08-07T20:53:17.500Z,19.19
2022-08-07T21:01:19.585Z,19.05
2022-08-07T21:04:29.810Z,19.01
2022-08-07T21:07:34.699Z,18.97
2022-08-07T21:10:37.900Z,18.90
2022-08-07T21:14:29.505Z,18.86
2022-08-07T21:18:03.270Z,18.81
2022-08-07T21:20:47.993Z,18.76
2022-08-07T21:24:15.267Z,18.71
2022-08-07T21:27:40.086Z,18.66
2022-08-07T21:31:16.884Z,18.60
2022-08-07T21:34:46.215Z,18.52
2022-08-07T21:38:00.282Z,18.47
2022-08-07T21:41:10.757Z,18.44
2022-08-07T21:44:44.795Z,18.39
2022-08-07T21:48:26.843Z,18.33
2022-08-07T21:51:32.163Z,18.27
2022-08-07T21:54:34.145Z,18.22
2022-08-07T21:57:53.639Z,18.17
2022-08-07T22:00:59.664Z,18.12
2022-08-07T22:04:07.644Z,18.08
2022-08-07T22:07:19.083Z,18.03
2022-08-07T22:10:32.929Z,17.99
2022-08-07T22:13:51.233Z,17.95
2022-08-07T22:17:00.984Z,17.91
2022-08-07T22:20:23.480Z,17.88
2022-08-07T22:23:32.519Z,17.84
2022-08-07T22:26:44.659Z,17.80
2022-08-07T22:29:58.854Z,17.74
2022-08-07T22:33:09.329Z,17.72
2022-08-07T22:36:22.758Z,17.67
2022-08-07T22:39:35.194Z,17.62
2022-08-07T22:43:03.351Z,17.58
2022-08-07T22:47:02.461Z,17.55
2022-08-07T22:50:07.046Z,17.53
2022-08-07T22:54:05.480Z,17.49
2022-08-07T22:57:25.734Z,17.45
2022-08-07T23:00:59.616Z,17.42
2022-08-07T23:04:32.982Z,17.37
2022-08-07T23:08:22.365Z,17.33
2022-08-07T23:11:45.690Z,17.29
2022-08-07T23:16:05.696Z,17.23
2022-08-07T23:19:48.062Z,17.19
2022-08-07T23:24:06.216Z,17.15
2022-08-07T23:27:18.014Z,17.10
2022-08-07T23:31:11.886Z,17.07
2022-08-07T23:34:38.085Z,17.02
2022-08-07T23:38:19.275Z,16.99
2022-08-07T23:41:47.513Z,16.94
2022-08-07T23:45:32.833Z,16.89
2022-08-07T23:49:19.436Z,16.85
2022-08-07T23:52:59.616Z,16.80
2022-08-07T23:56:15.494Z,16.75
